sensor_id;sensor_type;location;lat;lon;timestamp;P1;durP1;ratioP1;P2;durP2;ratioP2
77738;SDS011;66904;59.926;30.404;2023-07-31T00:04:17;3.85;;;1.33;;
77738;SDS011;66904;59.926;30.404;2023-07-31T00:09:18;2.30;;;1.27;;
77738;SDS011;66904;59.926;30.404;2023-07-31T00:14:18;3.25;;;1.50;;
77738;SDS011;66904;59.926;30.404;2023-07-31T00:19:19;1.90;;;1.30;;
77738;SDS011;66904;59.926;30.404;2023-07-31T00:24:19;2.00;;;1.40;;
77738;SDS011;66904;59.926;30.404;2023-07-31T00:29:20;2.30;;;1.20;;
77738;SDS011;66904;59.926;30.404;2023-07-31T00:34:20;1.88;;;1.45;;
77738;SDS011;66904;59.926;30.404;2023-07-31T00:39:21;2.25;;;1.50;;
77738;SDS011;66904;59.926;30.404;2023-07-31T00:44:21;1.77;;;1.13;;
77738;SDS011;66904;59.926;30.404;2023-07-31T00:49:22;2.75;;;1.98;;
77738;SDS011;66904;59.926;30.404;2023-07-31T00:54:23;3.13;;;1.50;;
77738;SDS011;66904;59.926;30.404;2023-07-31T00:59:23;2.65;;;1.60;;
77738;SDS011;66904;59.926;30.404;2023-07-31T01:04:24;3.00;;;1.83;;
77738;SDS011;66904;59.926;30.404;2023-07-31T01:09:36;3.05;;;1.77;;
77738;SDS011;66904;59.926;30.404;2023-07-31T01:15:06;3.97;;;1.65;;
77738;SDS011;66904;59.926;30.404;2023-07-31T01:20:12;2.97;;;1.42;;
77738;SDS011;66904;59.926;30.404;2023-07-31T01:30:37;3.75;;;1.73;;
77738;SDS011;66904;59.926;30.404;2023-07-31T01:35:46;4.93;;;1.83;;
77738;SDS011;66904;59.926;30.404;2023-07-31T01:40:50;2.80;;;1.70;;
77738;SDS011;66904;59.926;30.404;2023-07-31T01:45:52;2.97;;;1.52;;
77738;SDS011;66904;59.926;30.404;2023-07-31T01:50:53;3.40;;;1.75;;
77738;SDS011;66904;59.926;30.404;2023-07-31T01:55:53;3.90;;;1.83;;
77738;SDS011;66904;59.926;30.404;2023-07-31T02:00:54;5.65;;;2.15;;
77738;SDS011;66904;59.926;30.404;2023-07-31T02:05:54;2.58;;;1.60;;
77738;SDS011;66904;59.926;30.404;2023-07-31T02:10:56;3.33;;;2.13;;
77738;SDS011;66904;59.926;30.404;2023-07-31T02:15:57;2.10;;;1.40;;
77738;SDS011;66904;59.926;30.404;2023-07-31T02:20:57;2.80;;;1.45;;
77738;SDS011;66904;59.926;30.404;2023-07-31T02:25:58;5.00;;;2.33;;
77738;SDS011;66904;59.926;30.404;2023-07-31T02:30:59;3.17;;;1.63;;
77738;SDS011;66904;59.926;30.404;2023-07-31T02:35:59;3.95;;;1.90;;
77738;SDS011;66904;59.926;30.404;2023-07-31T02:41:00;2.78;;;1.70;;
77738;SDS011;66904;59.926;30.404;2023-07-31T02:46:00;4.18;;;2.33;;
77738;SDS011;66904;59.926;30.404;2023-07-31T02:51:01;2.85;;;1.60;;
77738;SDS011;66904;59.926;30.404;2023-07-31T02:56:01;4.07;;;2.00;;
77738;SDS011;66904;59.926;30.404;2023-07-31T03:01:02;3.88;;;1.92;;
77738;SDS011;66904;59.926;30.404;2023-07-31T03:06:02;2.75;;;1.50;;
77738;SDS011;66904;59.926;30.404;2023-07-31T03:11:03;2.95;;;2.05;;
77738;SDS011;66904;59.926;30.404;2023-07-31T03:16:03;2.92;;;1.60;;
77738;SDS011;66904;59.926;30.404;2023-07-31T03:21:04;3.25;;;2.22;;
77738;SDS011;66904;59.926;30.404;2023-07-31T03:26:05;3.00;;;2.08;;
77738;SDS011;66904;59.926;30.404;2023-07-31T03:31:07;3.92;;;1.83;;
77738;SDS011;66904;59.926;30.404;2023-07-31T03:36:08;4.25;;;2.42;;
77738;SDS011;66904;59.926;30.404;2023-07-31T03:41:09;3.25;;;1.50;;
77738;SDS011;66904;59.926;30.404;2023-07-31T03:46:10;5.32;;;3.00;;
77738;SDS011;66904;59.926;30.404;2023-07-31T03:51:11;4.82;;;2.22;;
77738;SDS011;66904;59.926;30.404;2023-07-31T03:56:11;2.60;;;1.63;;
77738;SDS011;66904;59.926;30.404;2023-07-31T04:01:12;2.53;;;1.65;;
77738;SDS011;66904;59.926;30.404;2023-07-31T04:06:13;2.45;;;1.60;;
77738;SDS011;66904;59.926;30.404;2023-07-31T04:11:13;26.77;;;2.38;;
77738;SDS011;66904;59.926;30.404;2023-07-31T04:16:14;4.80;;;2.40;;
77738;SDS011;66904;59.926;30.404;2023-07-31T04:21:14;6.28;;;2.42;;
77738;SDS011;66904;59.926;30.404;2023-07-31T04:26:15;5.65;;;1.83;;
77738;SDS011;66904;59.926;30.404;2023-07-31T04:31:16;5.97;;;2.47;;
77738;SDS011;66904;59.926;30.404;2023-07-31T04:36:16;2.40;;;1.52;;
77738;SDS011;66904;59.926;30.404;2023-07-31T04:41:17;3.38;;;1.77;;
77738;SDS011;66904;59.926;30.404;2023-07-31T04:46:17;4.95;;;1.38;;
77738;SDS011;66904;59.926;30.404;2023-07-31T04:51:18;2.45;;;1.52;;
77738;SDS011;66904;59.926;30.404;2023-07-31T04:56:18;2.42;;;1.17;;
77738;SDS011;66904;59.926;30.404;2023-07-31T05:01:19;2.47;;;1.30;;
77738;SDS011;66904;59.926;30.404;2023-07-31T05:06:20;4.40;;;2.13;;
77738;SDS011;66904;59.926;30.404;2023-07-31T05:11:20;1.88;;;0.98;;
77738;SDS011;66904;59.926;30.404;2023-07-31T05:16:21;3.40;;;1.30;;
77738;SDS011;66904;59.926;30.404;2023-07-31T05:21:21;2.67;;;1.98;;
77738;SDS011;66904;59.926;30.404;2023-07-31T05:26:22;3.08;;;1.33;;
77738;SDS011;66904;59.926;30.404;2023-07-31T05:31:23;3.58;;;1.05;;
77738;SDS011;66904;59.926;30.404;2023-07-31T05:36:24;3.63;;;1.05;;
77738;SDS011;66904;59.926;30.404;2023-07-31T05:41:25;2.72;;;0.85;;
77738;SDS011;66904;59.926;30.404;2023-07-31T05:46:25;1.92;;;1.30;;
77738;SDS011;66904;59.926;30.404;2023-07-31T05:51:26;3.03;;;1.02;;
77738;SDS011;66904;59.926;30.404;2023-07-31T05:56:27;2.83;;;1.27;;
77738;SDS011;66904;59.926;30.404;2023-07-31T06:01:28;2.40;;;1.08;;
77738;SDS011;66904;59.926;30.404;2023-07-31T06:06:28;1.83;;;1.00;;
77738;SDS011;66904;59.926;30.404;2023-07-31T06:11:29;5.53;;;1.83;;
77738;SDS011;66904;59.926;30.404;2023-07-31T06:16:30;1.63;;;1.00;;
77738;SDS011;66904;59.926;30.404;2023-07-31T06:21:30;2.55;;;0.90;;
77738;SDS011;66904;59.926;30.404;2023-07-31T06:26:31;1.45;;;0.90;;
77738;SDS011;66904;59.926;30.404;2023-07-31T06:31:34;2.17;;;1.00;;
77738;SDS011;66904;59.926;30.404;2023-07-31T06:36:34;4.15;;;1.48;;
77738;SDS011;66904;59.926;30.404;2023-07-31T06:41:35;4.55;;;1.60;;
77738;SDS011;66904;59.926;30.404;2023-07-31T06:46:36;1.90;;;1.02;;
77738;SDS011;66904;59.926;30.404;2023-07-31T06:51:36;1.55;;;0.80;;
77738;SDS011;66904;59.926;30.404;2023-07-31T06:56:38;1.98;;;1.23;;
77738;SDS011;66904;59.926;30.404;2023-07-31T07:01:38;0.98;;;0.65;;
77738;SDS011;66904;59.926;30.404;2023-07-31T07:06:39;1.00;;;0.70;;
77738;SDS011;66904;59.926;30.404;2023-07-31T07:11:40;1.15;;;0.80;;
77738;SDS011;66904;59.926;30.404;2023-07-31T07:16:40;1.83;;;0.88;;
77738;SDS011;66904;59.926;30.404;2023-07-31T07:21:41;1.65;;;0.93;;
77738;SDS011;66904;59.926;30.404;2023-07-31T07:26:41;1.40;;;0.88;;
77738;SDS011;66904;59.926;30.404;2023-07-31T07:31:42;1.60;;;0.98;;
77738;SDS011;66904;59.926;30.404;2023-07-31T07:36:42;1.27;;;0.73;;
77738;SDS011;66904;59.926;30.404;2023-07-31T07:41:43;1.08;;;0.75;;
77738;SDS011;66904;59.926;30.404;2023-07-31T07:46:43;1.50;;;0.98;;
77738;SDS011;66904;59.926;30.404;2023-07-31T07:51:44;1.17;;;0.63;;
77738;SDS011;66904;59.926;30.404;2023-07-31T07:56:44;3.47;;;0.82;;
77738;SDS011;66904;59.926;30.404;2023-07-31T08:01:45;1.20;;;0.43;;
77738;SDS011;66904;59.926;30.404;2023-07-31T08:06:46;1.50;;;1.02;;
77738;SDS011;66904;59.926;30.404;2023-07-31T08:11:46;1.50;;;0.80;;
77738;SDS011;66904;59.926;30.404;2023-07-31T08:16:47;1.98;;;1.30;;
77738;SDS011;66904;59.926;30.404;2023-07-31T08:21:47;1.83;;;0.90;;
77738;SDS011;66904;59.926;30.404;2023-07-31T08:26:48;1.63;;;1.13;;
77738;SDS011;66904;59.926;30.404;2023-07-31T08:31:48;1.67;;;0.80;;
77738;SDS011;66904;59.926;30.404;2023-07-31T08:36:49;1.23;;;0.70;;
77738;SDS011;66904;59.926;30.404;2023-07-31T08:41:49;2.17;;;0.80;;
77738;SDS011;66904;59.926;30.404;2023-07-31T08:46:50;0.80;;;0.60;;
77738;SDS011;66904;59.926;30.404;2023-07-31T08:51:52;4.82;;;0.68;;
77738;SDS011;66904;59.926;30.404;2023-07-31T08:56:55;1.60;;;0.60;;
77738;SDS011;66904;59.926;30.404;2023-07-31T09:01:57;1.05;;;0.52;;
77738;SDS011;66904;59.926;30.404;2023-07-31T09:07:04;9.35;;;1.00;;
77738;SDS011;66904;59.926;30.404;2023-07-31T09:12:06;1.60;;;1.13;;
77738;SDS011;66904;59.926;30.404;2023-07-31T09:17:07;0.70;;;0.40;;
77738;SDS011;66904;59.926;30.404;2023-07-31T09:22:07;0.88;;;0.50;;
77738;SDS011;66904;59.926;30.404;2023-07-31T09:27:08;1.35;;;0.57;;
77738;SDS011;66904;59.926;30.404;2023-07-31T09:32:15;1.00;;;0.45;;
77738;SDS011;66904;59.926;30.404;2023-07-31T09:37:17;0.77;;;0.50;;
77738;SDS011;66904;59.926;30.404;2023-07-31T09:42:25;1.20;;;0.65;;
77738;SDS011;66904;59.926;30.404;2023-07-31T09:47:26;0.70;;;0.40;;
77738;SDS011;66904;59.926;30.404;2023-07-31T09:52:27;0.55;;;0.40;;
77738;SDS011;66904;59.926;30.404;2023-07-31T09:57:28;0.75;;;0.35;;
77738;SDS011;66904;59.926;30.404;2023-07-31T10:02:28;2.38;;;0.38;;
77738;SDS011;66904;59.926;30.404;2023-07-31T10:07:33;0.50;;;0.30;;
77738;SDS011;66904;59.926;30.404;2023-07-31T10:12:38;0.43;;;0.30;;
77738;SDS011;66904;59.926;30.404;2023-07-31T10:17:39;0.70;;;0.40;;
77738;SDS011;66904;59.926;30.404;2023-07-31T10:22:40;0.88;;;0.40;;
77738;SDS011;66904;59.926;30.404;2023-07-31T10:27:41;0.55;;;0.30;;
77738;SDS011;66904;59.926;30.404;2023-07-31T10:32:43;0.95;;;0.45;;
77738;SDS011;66904;59.926;30.404;2023-07-31T10:37:45;0.57;;;0.38;;
77738;SDS011;66904;59.926;30.404;2023-07-31T10:42:52;0.57;;;0.30;;
77738;SDS011;66904;59.926;30.404;2023-07-31T10:47:58;1.40;;;0.65;;
77738;SDS011;66904;59.926;30.404;2023-07-31T10:53:34;0.32;;;0.20;;
77738;SDS011;66904;59.926;30.404;2023-07-31T10:58:37;1.10;;;0.50;;
77738;SDS011;66904;59.926;30.404;2023-07-31T11:03:42;0.52;;;0.40;;
77738;SDS011;66904;59.926;30.404;2023-07-31T11:08:44;0.70;;;0.28;;
77738;SDS011;66904;59.926;30.404;2023-07-31T11:18:54;1.13;;;0.50;;
77738;SDS011;66904;59.926;30.404;2023-07-31T11:23:56;0.68;;;0.35;;
77738;SDS011;66904;59.926;30.404;2023-07-31T11:28:57;1.15;;;0.68;;
77738;SDS011;66904;59.926;30.404;2023-07-31T11:34:05;0.93;;;0.50;;
77738;SDS011;66904;59.926;30.404;2023-07-31T11:39:07;0.90;;;0.60;;
77738;SDS011;66904;59.926;30.404;2023-07-31T11:44:09;1.05;;;0.95;;
77738;SDS011;66904;59.926;30.404;2023-07-31T11:49:09;1.13;;;0.60;;
77738;SDS011;66904;59.926;30.404;2023-07-31T11:54:10;0.80;;;0.47;;
77738;SDS011;66904;59.926;30.404;2023-07-31T11:59:12;0.77;;;0.52;;
77738;SDS011;66904;59.926;30.404;2023-07-31T12:04:13;1.30;;;0.50;;
77738;SDS011;66904;59.926;30.404;2023-07-31T12:09:14;0.77;;;0.60;;
77738;SDS011;66904;59.926;30.404;2023-07-31T12:14:21;0.65;;;0.40;;
77738;SDS011;66904;59.926;30.404;2023-07-31T12:19:26;0.82;;;0.45;;
77738;SDS011;66904;59.926;30.404;2023-07-31T12:24:30;1.15;;;0.55;;
77738;SDS011;66904;59.926;30.404;2023-07-31T12:29:34;0.60;;;0.50;;
77738;SDS011;66904;59.926;30.404;2023-07-31T12:34:41;3.33;;;1.27;;
77738;SDS011;66904;59.926;30.404;2023-07-31T12:39:43;1.02;;;0.35;;
77738;SDS011;66904;59.926;30.404;2023-07-31T12:44:44;1.00;;;0.55;;
77738;SDS011;66904;59.926;30.404;2023-07-31T12:49:44;1.17;;;0.70;;
77738;SDS011;66904;59.926;30.404;2023-07-31T12:54:45;1.92;;;0.40;;
77738;SDS011;66904;59.926;30.404;2023-07-31T12:59:46;0.85;;;0.40;;
77738;SDS011;66904;59.926;30.404;2023-07-31T13:04:46;4.30;;;3.90;;
77738;SDS011;66904;59.926;30.404;2023-07-31T13:09:48;6.20;;;5.60;;
77738;SDS011;66904;59.926;30.404;2023-07-31T13:14:49;7.10;;;6.28;;
77738;SDS011;66904;59.926;30.404;2023-07-31T13:19:50;16.05;;;7.82;;
77738;SDS011;66904;59.926;30.404;2023-07-31T13:24:51;11.80;;;9.15;;
77738;SDS011;66904;59.926;30.404;2023-07-31T13:29:51;14.00;;;10.73;;
77738;SDS011;66904;59.926;30.404;2023-07-31T13:34:52;12.13;;;9.02;;
77738;SDS011;66904;59.926;30.404;2023-07-31T13:39:53;10.55;;;7.65;;
77738;SDS011;66904;59.926;30.404;2023-07-31T13:44:53;13.57;;;8.50;;
77738;SDS011;66904;59.926;30.404;2023-07-31T13:49:56;11.48;;;8.45;;
77738;SDS011;66904;59.926;30.404;2023-07-31T13:54:56;11.18;;;7.25;;
77738;SDS011;66904;59.926;30.404;2023-07-31T13:59:57;8.88;;;6.53;;
77738;SDS011;66904;59.926;30.404;2023-07-31T14:04:57;7.93;;;5.30;;
77738;SDS011;66904;59.926;30.404;2023-07-31T14:09:58;7.78;;;4.60;;
77738;SDS011;66904;59.926;30.404;2023-07-31T14:14:59;6.20;;;4.20;;
77738;SDS011;66904;59.926;30.404;2023-07-31T14:19:59;5.57;;;3.70;;
77738;SDS011;66904;59.926;30.404;2023-07-31T14:25:00;5.55;;;3.60;;
77738;SDS011;66904;59.926;30.404;2023-07-31T14:30:01;4.93;;;2.80;;
77738;SDS011;66904;59.926;30.404;2023-07-31T14:35:01;6.13;;;2.60;;
77738;SDS011;66904;59.926;30.404;2023-07-31T14:40:03;4.22;;;2.45;;
77738;SDS011;66904;59.926;30.404;2023-07-31T14:45:04;3.78;;;2.15;;
77738;SDS011;66904;59.926;30.404;2023-07-31T14:50:06;5.10;;;2.35;;
77738;SDS011;66904;59.926;30.404;2023-07-31T14:55:07;3.83;;;1.73;;
77738;SDS011;66904;59.926;30.404;2023-07-31T15:00:08;3.25;;;1.85;;
77738;SDS011;66904;59.926;30.404;2023-07-31T15:05:10;2.38;;;1.60;;
77738;SDS011;66904;59.926;30.404;2023-07-31T15:10:11;1.92;;;1.38;;
77738;SDS011;66904;59.926;30.404;2023-07-31T15:15:11;2.55;;;1.58;;
77738;SDS011;66904;59.926;30.404;2023-07-31T15:20:12;2.63;;;1.58;;
77738;SDS011;66904;59.926;30.404;2023-07-31T15:25:12;5.65;;;1.30;;
77738;SDS011;66904;59.926;30.404;2023-07-31T15:30:13;3.58;;;1.55;;
77738;SDS011;66904;59.926;30.404;2023-07-31T15:35:14;2.15;;;1.40;;
77738;SDS011;66904;59.926;30.404;2023-07-31T15:40:14;1.65;;;0.90;;
77738;SDS011;66904;59.926;30.404;2023-07-31T15:45:15;2.22;;;1.15;;
77738;SDS011;66904;59.926;30.404;2023-07-31T15:50:16;1.80;;;1.13;;
77738;SDS011;66904;59.926;30.404;2023-07-31T15:55:16;2.35;;;1.15;;
77738;SDS011;66904;59.926;30.404;2023-07-31T16:00:17;1.80;;;1.35;;
77738;SDS011;66904;59.926;30.404;2023-07-31T16:05:18;1.90;;;0.70;;
77738;SDS011;66904;59.926;30.404;2023-07-31T16:10:19;1.70;;;0.90;;
77738;SDS011;66904;59.926;30.404;2023-07-31T16:15:19;1.80;;;0.95;;
77738;SDS011;66904;59.926;30.404;2023-07-31T16:20:20;2.92;;;1.20;;
77738;SDS011;66904;59.926;30.404;2023-07-31T16:25:20;2.95;;;0.80;;
77738;SDS011;66904;59.926;30.404;2023-07-31T16:30:21;1.70;;;0.70;;
77738;SDS011;66904;59.926;30.404;2023-07-31T16:35:21;1.65;;;0.90;;
77738;SDS011;66904;59.926;30.404;2023-07-31T16:40:22;1.35;;;0.85;;
77738;SDS011;66904;59.926;30.404;2023-07-31T16:45:22;1.13;;;0.60;;
77738;SDS011;66904;59.926;30.404;2023-07-31T16:50:23;3.13;;;0.85;;
77738;SDS011;66904;59.926;30.404;2023-07-31T16:55:24;2.28;;;1.08;;
77738;SDS011;66904;59.926;30.404;2023-07-31T17:00:24;0.93;;;0.70;;
77738;SDS011;66904;59.926;30.404;2023-07-31T17:05:25;1.10;;;0.70;;
77738;SDS011;66904;59.926;30.404;2023-07-31T17:10:26;2.10;;;1.10;;
77738;SDS011;66904;59.926;30.404;2023-07-31T17:15:26;3.18;;;1.48;;
77738;SDS011;66904;59.926;30.404;2023-07-31T17:20:27;2.38;;;1.33;;
77738;SDS011;66904;59.926;30.404;2023-07-31T17:25:29;2.97;;;2.38;;
77738;SDS011;66904;59.926;30.404;2023-07-31T17:30:30;17.45;;;14.88;;
77738;SDS011;66904;59.926;30.404;2023-07-31T17:35:31;13.77;;;11.10;;
77738;SDS011;66904;59.926;30.404;2023-07-31T17:40:32;16.73;;;11.93;;
77738;SDS011;66904;59.926;30.404;2023-07-31T17:45:33;13.50;;;10.57;;
77738;SDS011;66904;59.926;30.404;2023-07-31T17:50:34;9.35;;;8.00;;
77738;SDS011;66904;59.926;30.404;2023-07-31T17:55:34;9.35;;;7.75;;
77738;SDS011;66904;59.926;30.404;2023-07-31T18:00:35;7.43;;;6.18;;
77738;SDS011;66904;59.926;30.404;2023-07-31T18:05:36;6.47;;;5.65;;
77738;SDS011;66904;59.926;30.404;2023-07-31T18:10:42;6.25;;;4.47;;
77738;SDS011;66904;59.926;30.404;2023-07-31T18:15:44;6.53;;;5.13;;
77738;SDS011;66904;59.926;30.404;2023-07-31T18:20:45;5.65;;;4.13;;
77738;SDS011;66904;59.926;30.404;2023-07-31T18:25:46;4.78;;;3.50;;
77738;SDS011;66904;59.926;30.404;2023-07-31T18:30:47;4.90;;;3.15;;
77738;SDS011;66904;59.926;30.404;2023-07-31T18:35:48;5.30;;;3.13;;
77738;SDS011;66904;59.926;30.404;2023-07-31T18:40:48;4.05;;;2.88;;
77738;SDS011;66904;59.926;30.404;2023-07-31T18:45:49;3.33;;;2.17;;
77738;SDS011;66904;59.926;30.404;2023-07-31T18:50:50;2.58;;;2.05;;
77738;SDS011;66904;59.926;30.404;2023-07-31T18:55:51;2.85;;;2.03;;
77738;SDS011;66904;59.926;30.404;2023-07-31T19:00:52;2.53;;;1.80;;
77738;SDS011;66904;59.926;30.404;2023-07-31T19:06:02;2.72;;;1.70;;
77738;SDS011;66904;59.926;30.404;2023-07-31T19:11:03;2.33;;;1.63;;
77738;SDS011;66904;59.926;30.404;2023-07-31T19:16:04;2.38;;;1.75;;
77738;SDS011;66904;59.926;30.404;2023-07-31T19:21:04;2.95;;;1.92;;
77738;SDS011;66904;59.926;30.404;2023-07-31T19:26:05;4.22;;;1.50;;
77738;SDS011;66904;59.926;30.404;2023-07-31T19:31:05;2.95;;;1.77;;
77738;SDS011;66904;59.926;30.404;2023-07-31T19:36:06;1.95;;;1.30;;
77738;SDS011;66904;59.926;30.404;2023-07-31T19:41:07;3.35;;;1.67;;
77738;SDS011;66904;59.926;30.404;2023-07-31T19:46:08;1.83;;;1.00;;
77738;SDS011;66904;59.926;30.404;2023-07-31T19:51:08;2.25;;;0.95;;
77738;SDS011;66904;59.926;30.404;2023-07-31T19:56:09;2.20;;;1.30;;
77738;SDS011;66904;59.926;30.404;2023-07-31T20:01:09;2.15;;;1.25;;
77738;SDS011;66904;59.926;30.404;2023-07-31T20:06:10;2.10;;;1.42;;
77738;SDS011;66904;59.926;30.404;2023-07-31T20:11:11;4.38;;;2.80;;
77738;SDS011;66904;59.926;30.404;2023-07-31T20:16:11;3.97;;;2.08;;
77738;SDS011;66904;59.926;30.404;2023-07-31T20:21:12;2.50;;;1.30;;
77738;SDS011;66904;59.926;30.404;2023-07-31T20:26:12;1.90;;;1.30;;
77738;SDS011;66904;59.926;30.404;2023-07-31T20:31:13;4.00;;;1.35;;
77738;SDS011;66904;59.926;30.404;2023-07-31T20:36:15;2.60;;;1.52;;
77738;SDS011;66904;59.926;30.404;2023-07-31T20:41:16;2.10;;;1.23;;
77738;SDS011;66904;59.926;30.404;2023-07-31T20:46:16;4.43;;;1.60;;
77738;SDS011;66904;59.926;30.404;2023-07-31T20:51:17;2.30;;;1.63;;
77738;SDS011;66904;59.926;30.404;2023-07-31T20:56:18;1.85;;;1.38;;
77738;SDS011;66904;59.926;30.404;2023-07-31T21:01:19;3.17;;;1.40;;
77738;SDS011;66904;59.926;30.404;2023-07-31T21:06:19;1.98;;;1.25;;
77738;SDS011;66904;59.926;30.404;2023-07-31T21:11:20;1.45;;;0.93;;
77738;SDS011;66904;59.926;30.404;2023-07-31T21:16:21;3.67;;;1.42;;
77738;SDS011;66904;59.926;30.404;2023-07-31T21:21:22;1.65;;;1.02;;
77738;SDS011;66904;59.926;30.404;2023-07-31T21:26:22;1.85;;;1.08;;
77738;SDS011;66904;59.926;30.404;2023-07-31T21:31:23;1.90;;;1.13;;
77738;SDS011;66904;59.926;30.404;2023-07-31T21:36:23;2.15;;;1.38;;
77738;SDS011;66904;59.926;30.404;2023-07-31T21:41:24;2.58;;;1.30;;
77738;SDS011;66904;59.926;30.404;2023-07-31T21:46:24;2.40;;;1.60;;
77738;SDS011;66904;59.926;30.404;2023-07-31T21:51:25;2.17;;;0.90;;
77738;SDS011;66904;59.926;30.404;2023-07-31T21:56:25;1.60;;;1.10;;
77738;SDS011;66904;59.926;30.404;2023-07-31T22:01:26;1.33;;;0.77;;
77738;SDS011;66904;59.926;30.404;2023-07-31T22:06:27;1.60;;;1.30;;
77738;SDS011;66904;59.926;30.404;2023-07-31T22:11:27;1.90;;;0.90;;
77738;SDS011;66904;59.926;30.404;2023-07-31T22:16:28;1.60;;;0.98;;
77738;SDS011;66904;59.926;30.404;2023-07-31T22:21:28;1.58;;;1.05;;
77738;SDS011;66904;59.926;30.404;2023-07-31T22:26:29;1.90;;;0.90;;
77738;SDS011;66904;59.926;30.404;2023-07-31T22:31:29;1.80;;;1.15;;
77738;SDS011;66904;59.926;30.404;2023-07-31T22:36:30;3.05;;;1.20;;
77738;SDS011;66904;59.926;30.404;2023-07-31T22:41:30;2.45;;;1.08;;
77738;SDS011;66904;59.926;30.404;2023-07-31T22:46:31;1.85;;;1.35;;
77738;SDS011;66904;59.926;30.404;2023-07-31T22:51:32;1.98;;;1.10;;
77738;SDS011;66904;59.926;30.404;2023-07-31T22:56:33;2.10;;;1.08;;
77738;SDS011;66904;59.926;30.404;2023-07-31T23:01:33;3.95;;;1.40;;
77738;SDS011;66904;59.926;30.404;2023-07-31T23:06:34;2.15;;;1.00;;
77738;SDS011;66904;59.926;30.404;2023-07-31T23:11:34;1.90;;;1.17;;
77738;SDS011;66904;59.926;30.404;2023-07-31T23:16:35;2.60;;;1.20;;
77738;SDS011;66904;59.926;30.404;2023-07-31T23:21:35;1.80;;;1.15;;
77738;SDS011;66904;59.926;30.404;2023-07-31T23:26:36;2.17;;;1.98;;
77738;SDS011;66904;59.926;30.404;2023-07-31T23:31:36;1.90;;;1.00;;
77738;SDS011;66904;59.926;30.404;2023-07-31T23:36:37;1.70;;;0.90;;
77738;SDS011;66904;59.926;30.404;2023-07-31T23:41:37;1.60;;;1.20;;
77738;SDS011;66904;59.926;30.404;2023-07-31T23:46:38;1.85;;;1.00;;
77738;SDS011;66904;59.926;30.404;2023-07-31T23:51:45;1.45;;;0.80;;
77738;SDS011;66904;59.926;30.404;2023-07-31T23:56:46;2.00;;;1.23;;
